Accueil
METAR-TAF:

METAR-TAF

Aéroports :

Pruniers

Romorantin, France

latitude: 47-19N, longitude: 001-41E, altitude: 85 m

Observation

Le bulletin a été fait il y a 36 minutes, à 14:30 UTC
Vent 12 kt de sud
Température 9°C
Humidité 93%
Pression 1008 hPa
Visibilité 10 km ou plus
Ciel couvert à une hauteur de 1100 ft

METAR: LFYR 271430Z AUTO 19012KT 9999 OVC011 09/08 Q1008 TEMPO 22015G30KT 3500 SHRA BKN010 BKN030CB

Heure: 16:06 (15:06 UTC)


TAF: absent

Observations et prévisions météorologiques de plus de 4000 aéroports (messages METAR et TAF).

Les stations disponibles sont représentées par des disques jaunes et rouges sur la carte.

Passer la souris dessus pour voir le nom de la station.

Cliquer dessus pour voir les observations et prévisions météorologiques.

Pour changer de carte: cliquez sur les boutons verts avec une croix noire pour zoomer, sur le bouton vert avec un tiret pour effectuer un zoom arrière, ou sur les flèches vertes pour les cartes adjacentes.


METAR-TAF: